Shelbyville, IN

9:36 PM EST on February 21, 2018 (GMT -0500)
K O 9 O K | | Change Station
Active Advisory: Flood Warning

Elev 774 ft 39.55 °N, 85.78 °W | Updated 32 seconds ago

Rain
Rain
38.7 °F
Feels Like 35 °F
N
5.0
Wind Variable Wind from NE

Today
High -- | Low -- °F
--% Chance of Precip.
Yesterday
High -- | Low -- °F
Precip. -- in
Pressure 30.48 in
Visibility 8.0 miles
Clouds Overcast 1000 ft
Windchill 35 °F
Dew Point 38 °F
Humidity 98%
Rainfall 1.09 in
Snow Depth Not available.
7:27 AM 6:26 PM
Waxing Crescent, 36% visible
METAR KGEZ 220153Z AUTO 06011KT 8SM -RA OVC010 04/02 A3047 RMK AO2 SLP322 P0005 T00440022 $
Pressure 30.48 in
Visibility 8.0 miles
Clouds Overcast 1000 ft
Windchill 35 °F
Dew Point 38 °F
Humidity 98%
Rainfall 1.09 in
Snow Depth Not available.
7:27 AM 6:26 PM
Waxing Crescent, 36% visible
METAR KGEZ 220153Z AUTO 06011KT 8SM -RA OVC010 04/02 A3047 RMK AO2 SLP322 P0005 T00440022 $

Get Your Daily Forecast Email!

Thanks for signing up!

Be on the lookout for a verification email in your inbox.

You'll start receiving severe weather alerts in your inbox..

×

10-Day Weather Forecast

Almanac

Astronomy

Feb. 21, 2018 Rise Set
Actual Time
Civil Twilight
Nautical Twilight
Astronomical Twilight
Moon
Length of Visible Light
Length of Day
Tomorrow will be .
, % of the Moon is Illuminated

Today's Extremes

State Highs State Lows

Community

WunderPhotos

Category 6

Welcome to Category 6. This is the collective home for Weather Underground's featured writeups by Dr. Jeff Masters (right), Bob Henson (left), Chris Burt, and other regular contributors.

Nearby

Air Quality

  Air Quality AQ Index Pollutant
Not available.

Snow Depth

Station Depth Elevation

Earthquake Activity

City Distance Mag. Time & Date
Minimum magnitude displayed is 2.5.

Coastal Water Temperatures

Place Temperature

Stations

Nearby Weather Stations

Station Location Temp. Windchill Dew Point Humidity Wind Precip. Elev Updated Type
                   

Watches & Warnings

Flood Warning
Issued: 6:42 PM EST Feb. 21, 2018 – National Weather Service

The Flood Warning continues for
the Driftwood river near Edinburgh 2 SW.
* From Friday evening to Monday afternoon.
* At 5:30 PM Wednesday the stage was 6.3 feet.
* Flood stage is 11.0 feet.
* Minor flooding is forecast.
* Forecast... rise above flood stage by Friday before midnight and
continue to rise to near 12.5 feet by Saturday evening. The river
will fall below flood stage by early Monday morning.
* At 12.0 feet... lowland flooding reported along Sugar Creek and big
Blue River in southern Johnson County in March 2011. Lowland
flooding begins along portions of the Driftwood river in northern
Bartholomew County. Water is near CR 950n to double y saddle club.


Lat... Lon 3936 8595 3922 8595 3922 8592 3920 8591
      3920 8597 3937 8601